Terminal Aerodrome Forecast
Issued by NWS Albany, NY

Home | Current Version | Previous Version | Text Only | Print | Product List | Glossary On
Versions: 1 2 3 4 5 6 7 8 9 10 11 12 13 14 15 16 17 18 19 20 21 22 23 24 25 26 27 28
831
FTUS41 KALY 052358 CCA
TAFPOU
TAF COR
KPOU 052358Z 0600/0624 30008G16KT P6SM SKC
     FM060200 30006KT P6SM SKC
     FM060600 00000KT P6SM FEW250
     FM061300 22004KT P6SM SCT250
     FM061700 23007KT P6SM SCT050 SCT250=

USA.gov is the U.S. government's official web portal to all federal, state and local government web resources and services.